Ontario International Airport Ontario US
ICAO: KONT
IATA: ONT
Category: Large
Scheduled Services: Yes

Elevation: 944 ft
TransAlt. 18000 ft.

Airport Communications:
SOCAL APP/DEP:119.65
ATIS:124.25
CLNC DEL:118.1
GND:121.9
TWR:120.6

KONT Zoom In..

If Map Doesn't Load, Click Here

Runways:

(A) RW 08L length 12197 ft width 150 ft
ILS 109.70 / hdg 76

(B) RW 08R length 10200 ft width 150 ft
---- / hdg 76

(C) RW 26L length 10200 ft width 150 ft
ILS 111.35 / hdg 256

(D) RW 26R length 12197 ft width 150 ft
ILS 109.70 / hdg 256

Location; KONT
Day. 26 / Time. 09.53 Zulu
* Altimeter: 29.94
* Temperature: 17° c. 62.6°f.
* Wind from: 000° Speed 00 kn.
Dewpoint: 14° c.
Visibility: 7 Statute Miles.
Clouds: Clear (automated report).

KONT 260953Z 00000KT 7SM CLR 17/14 A2994 RMK AO2 SLP126 T01720144 $


Wind - Calm.

 
 
jpsmedia.com for Web Design worldairports.se 2018   terms of use